Terminal Aerodrome Forecast
Issued by NWS

Home | Current Version | Previous Version | Text Only | Print | Product List | Glossary On
Versions: 1 2 3 4 5 6 7 8 9 10 11 12 13 14 15 16 17 18
000
FTUS43 KTOP 290500
TAFFOE
TAF
KFOE 290520Z 2906/3006 12007KT P6SM VCTS SCT035CB BKN100
      TEMPO 2906/2910 3SM TSRA BKN025CB
     FM291400 20010KT P6SM VCTS BKN035CB=

USA.gov is the U.S. government's official web portal to all federal, state and local government web resources and services.